Time;durP1;ratioP1;P1;durP2;ratioP2;P2;SDS_P1;SDS_P2;PMS_P1;PMS_P2;Temp;Humidity;BMP_temperature;BMP_pressure;BME280_temperature;BME280_humidity;BME280_pressure;Samples;Min_cycle;Max_cycle;Signal;HPM_P1;HPM_P2
2022/09/08 00:01:15;;;;;;;6.53;6.03;;;17.00;1.00;;;;;;5138065;28;20807;-57
2022/09/08 00:03:43;;;;;;;5.37;4.97;;;17.00;1.00;;;;;;5135996;28;20894;-56
2022/09/08 00:06:18;;;;;;;6.20;5.20;;;17.00;1.00;;;;;;5138466;27;20933;-57
2022/09/08 00:08:46;;;;;;;5.53;5.03;;;17.00;1.00;;;;;;5138029;27;20483;-54
2022/09/08 00:11:18;;;;;;;7.30;5.10;;;16.90;1.00;;;;;;5138120;28;20481;-57
2022/09/08 00:13:47;;;;;;;6.10;5.50;;;17.00;1.00;;;;;;5120802;27;20491;-55
2022/09/08 00:16:18;;;;;;;5.33;4.80;;;17.00;1.00;;;;;;5117837;28;20522;-55
2022/09/08 00:18:47;;;;;;;4.80;4.40;;;17.00;1.00;;;;;;5117136;28;20487;-56
2022/09/08 00:21:22;;;;;;;5.20;4.80;;;17.00;1.00;;;;;;5117492;28;20491;-54
2022/09/08 00:23:52;;;;;;;5.23;4.83;;;17.00;1.00;;;;;;5118217;28;20805;-57
2022/09/08 00:26:21;;;;;;;6.10;5.50;;;16.90;1.00;;;;;;5128009;28;20515;-56
2022/09/08 00:28:51;;;;;;;5.00;4.57;;;16.90;1.00;;;;;;5137828;27;20763;-54
2022/09/08 00:31:21;;;;;;;5.67;5.03;;;17.00;1.00;;;;;;5138244;28;20887;-58
2022/09/08 00:33:49;;;;;;;4.67;4.33;;;16.90;1.00;;;;;;5137953;27;20808;-56
2022/09/08 00:36:18;;;;;;;9.73;5.80;;;17.00;1.00;;;;;;5132004;28;20520;-53
2022/09/08 00:38:51;;;;;;;5.37;4.87;;;17.00;1.00;;;;;;5117013;28;20434;-54
2022/09/08 00:41:19;;;;;;;5.40;4.90;;;17.00;1.00;;;;;;5117458;28;20465;-56
2022/09/08 00:43:58;;;;;;;5.40;4.90;;;16.90;1.00;;;;;;5120475;28;20456;-51
2022/09/08 00:46:28;;;;;;;5.80;5.20;;;17.00;1.00;;;;;;5121357;27;20463;-56
2022/09/08 00:49:02;;;;;;;5.17;4.67;;;16.90;1.00;;;;;;5120745;28;20562;-57
2022/09/08 00:51:32;;;;;;;5.33;4.40;;;16.90;1.00;;;;;;5122105;27;20496;-56
2022/09/08 00:53:59;;;;;;;5.40;5.00;;;17.00;1.00;;;;;;5120884;28;20438;-55
2022/09/08 00:56:29;;;;;;;4.90;4.10;;;17.00;1.00;;;;;;5123075;27;20877;-58
2022/09/08 00:58:57;;;;;;;5.30;4.90;;;17.10;1.00;;;;;;5139599;27;20458;-56
2022/09/08 01:01:24;;;;;;;5.37;4.97;;;17.10;1.00;;;;;;5139341;27;20869;-55
2022/09/08 01:03:51;;;;;;;5.03;4.63;;;17.10;1.00;;;;;;5140541;27;20755;-56
2022/09/08 01:15:03;;;;;;;6.37;5.23;;;17.00;1.00;;;;;;5119572;28;20508;-52
2022/09/08 01:17:32;;;;;;;5.80;4.13;;;17.00;1.00;;;;;;5124184;27;20462;-56
2022/09/08 01:20:02;;;;;;;5.50;4.77;;;17.10;1.00;;;;;;5141286;27;20473;-58
2022/09/08 01:22:58;;;;;;;5.97;4.80;;;17.00;1.00;;;;;;5138841;27;20486;-58
2022/09/08 01:26:06;;;;;;;7.20;4.77;;;17.00;1.00;;;;;;5140894;27;20434;-55
2022/09/08 01:28:41;;;;;;;5.40;5.00;;;17.00;1.00;;;;;;5124674;27;20490;-54
2022/09/08 01:31:09;;;;;;;5.63;5.23;;;17.00;1.00;;;;;;5138829;27;20446;-56
2022/09/08 01:33:38;;;;;;;5.50;5.03;;;17.00;1.00;;;;;;5140762;27;20481;-53
2022/09/08 01:36:09;;;;;;;5.33;4.83;;;17.00;1.00;;;;;;5140596;27;20439;-58
2022/09/08 01:38:37;;;;;;;4.90;4.40;;;17.00;1.00;;;;;;5123214;27;20434;-58
2022/09/08 01:41:04;;;;;;;4.93;4.50;;;17.00;1.00;;;;;;5120501;27;20466;-54
2022/09/08 01:43:31;;;;;;;5.10;4.70;;;16.90;1.00;;;;;;5119846;28;20499;-57
2022/09/08 01:46:00;;;;;;;5.47;4.97;;;16.80;1.00;;;;;;5120200;28;20441;-56
2022/09/08 01:48:29;;;;;;;5.43;4.63;;;16.80;1.00;;;;;;5120458;27;20463;-53
2022/09/08 01:50:59;;;;;;;12.40;5.80;;;16.80;1.00;;;;;;5119573;28;20467;-53
2022/09/08 01:53:27;;;;;;;5.50;5.10;;;16.80;1.00;;;;;;5120773;27;20751;-58
2022/09/08 01:55:54;;;;;;;5.43;4.77;;;16.80;1.00;;;;;;5119209;28;20469;-52
2022/09/08 01:58:21;;;;;;;5.23;4.83;;;16.80;1.00;;;;;;5124287;27;20554;-53
2022/09/08 02:00:52;;;;;;;6.93;5.17;;;16.90;1.00;;;;;;5138451;27;20553;-56
2022/09/08 02:03:20;;;;;;;6.47;5.43;;;16.90;1.00;;;;;;5138395;27;20458;-57
2022/09/08 02:05:48;;;;;;;5.83;4.97;;;16.90;1.00;;;;;;5140156;27;20475;-56
2022/09/08 02:08:15;;;;;;;5.50;5.10;;;16.80;1.00;;;;;;5138977;27;20434;-58
2022/09/08 02:10:46;;;;;;;5.53;5.00;;;16.80;1.00;;;;;;5120364;27;20513;-57
2022/09/08 02:13:14;;;;;;;5.13;4.73;;;16.80;1.00;;;;;;5119617;27;20872;-56
2022/09/08 02:15:43;;;;;;;5.30;4.83;;;16.80;1.00;;;;;;5118854;28;20827;-58
2022/09/08 02:18:11;;;;;;;5.43;4.70;;;16.70;1.00;;;;;;5119402;27;20863;-58
2022/09/08 02:20:39;;;;;;;5.03;4.53;;;16.80;1.00;;;;;;5134894;27;20444;-58
2022/09/08 02:23:06;;;;;;;4.77;3.83;;;16.80;1.00;;;;;;5138240;27;20457;-56
2022/09/08 02:25:39;;;;;;;4.20;3.80;;;16.90;1.00;;;;;;5139052;27;20865;-56
2022/09/08 02:28:08;;;;;;;6.27;5.23;;;16.90;1.00;;;;;;5139929;27;20800;-58
2022/09/08 02:30:36;;;;;;;5.20;4.23;;;16.90;1.00;;;;;;5125957;27;20507;-56
2022/09/08 02:33:04;;;;;;;5.13;4.43;;;16.90;1.00;;;;;;5119026;28;20525;-54
2022/09/08 02:35:31;;;;;;;5.10;4.17;;;17.00;1.00;;;;;;5117579;28;20465;-56
2022/09/08 02:38:00;;;;;;;4.70;4.30;;;17.00;1.00;;;;;;5119047;28;20466;-54
2022/09/08 02:40:29;;;;;;;6.47;4.47;;;17.00;1.00;;;;;;5118951;27;20491;-57
2022/09/08 02:42:56;;;;;;;6.37;5.73;;;17.00;1.00;;;;;;5118093;28;20523;-54
2022/09/08 02:45:23;;;;;;;5.70;4.40;;;17.00;1.00;;;;;;5118653;28;20558;-53
2022/09/08 02:47:51;;;;;;;8.10;4.23;;;17.00;1.00;;;;;;5118745;28;20498;-57
2022/09/08 02:50:18;;;;;;;4.83;4.33;;;17.10;1.00;;;;;;5120571;27;20442;-52
2022/09/08 02:52:45;;;;;;;4.67;3.93;;;17.00;1.00;;;;;;5138823;27;20490;-53
2022/09/08 02:55:14;;;;;;;6.80;4.90;;;17.00;1.00;;;;;;5136703;27;20884;-58
2022/09/08 02:57:41;;;;;;;5.00;4.50;;;17.10;1.00;;;;;;5139062;27;20437;-54
2022/09/08 03:00:10;;;;;;;4.27;3.87;;;17.10;1.00;;;;;;5139094;27;20458;-58
2022/09/08 03:02:37;;;;;;;6.63;3.77;;;17.10;1.00;;;;;;5136505;27;20966;-55
2022/09/08 03:05:07;;;;;;;4.60;4.20;;;17.10;1.00;;;;;;5137467;27;20933;-58
2022/09/08 03:07:35;;;;;;;4.87;4.37;;;17.10;1.00;;;;;;5138568;27;20437;-55
2022/09/08 03:10:05;;;;;;;8.00;4.47;;;17.10;1.00;;;;;;5139078;27;20524;-55
2022/09/08 03:12:34;;;;;;;4.50;4.10;;;17.10;1.00;;;;;;5124587;27;20455;-52
2022/09/08 03:15:02;;;;;;;4.53;4.13;;;17.20;1.00;;;;;;5117801;28;20491;-57
2022/09/08 03:17:29;;;;;;;4.63;3.70;;;17.10;1.00;;;;;;5117873;28;20439;-56
2022/09/08 03:19:59;;;;;;;5.37;4.87;;;17.00;1.00;;;;;;5118403;28;20465;-57
2022/09/08 03:22:26;;;;;;;4.70;4.30;;;17.10;1.00;;;;;;5118528;27;20458;-57
2022/09/08 03:24:56;;;;;;;5.23;3.87;;;17.10;1.00;;;;;;5118222;28;20440;-54
2022/09/08 03:27:23;;;;;;;5.50;3.90;;;17.10;1.00;;;;;;5118584;27;20772;-58
2022/09/08 03:29:54;;;;;;;5.27;4.23;;;17.10;1.00;;;;;;5118268;28;20867;-57
2022/09/08 03:32:23;;;;;;;5.30;4.20;;;17.10;1.00;;;;;;5119632;27;20451;-57
2022/09/08 03:34:50;;;;;;;4.50;3.60;;;17.20;1.00;;;;;;5118764;27;20431;-55
2022/09/08 03:37:21;;;;;;;4.53;4.10;;;17.20;1.00;;;;;;5118015;28;20434;-50
2022/09/08 03:39:48;;;;;;;6.53;4.83;;;17.10;1.00;;;;;;5117494;28;20434;-55
2022/09/08 03:42:52;;;;;;;4.40;4.00;;;17.10;1.00;;;;;;5117850;28;20505;-56
2022/09/08 03:45:22;;;;;;;8.97;4.77;;;17.20;1.00;;;;;;5138479;27;20454;-55
2022/09/08 03:47:52;;;;;;;5.53;3.77;;;17.30;1.00;;;;;;5138066;27;20461;-56
2022/09/08 03:50:20;;;;;;;11.03;5.10;;;17.30;1.00;;;;;;5138260;27;20950;-57
2022/09/08 03:52:47;;;;;;;4.80;3.70;;;17.30;1.00;;;;;;5138668;28;20818;-58
2022/09/08 03:55:15;;;;;;;4.50;3.80;;;17.40;1.00;;;;;;5121714;27;20970;-59
2022/09/08 03:57:42;;;;;;;6.63;3.77;;;17.40;1.00;;;;;;5118857;28;20461;-59
2022/09/08 04:00:12;;;;;;;5.97;3.77;;;17.50;1.00;;;;;;5117731;28;20431;-57
2022/09/08 04:02:44;;;;;;;5.13;3.70;;;17.50;99.90;;;;;;5117579;28;20472;-58
2022/09/08 04:05:12;;;;;;;4.20;3.80;;;17.60;99.90;;;;;;5128431;28;20434;-57
2022/09/08 04:07:40;;;;;;;4.73;3.30;;;17.60;99.90;;;;;;5138097;28;20434;-56
2022/09/08 04:10:08;;;;;;;4.67;4.27;;;17.70;99.90;;;;;;5138117;28;20480;-59
2022/09/08 04:12:35;;;;;;;4.60;3.73;;;17.70;99.90;;;;;;5137816;27;20458;-58
2022/09/08 04:15:12;;;;;;;5.20;3.60;;;17.60;1.00;;;;;;5130551;27;20454;-52
2022/09/08 04:17:40;;;;;;;6.87;3.87;;;17.60;1.00;;;;;;5118806;28;20899;-59
2022/09/08 04:20:09;;;;;;;3.80;3.40;;;17.50;1.00;;;;;;5122126;27;20486;-58
2022/09/08 04:22:36;;;;;;;4.10;3.70;;;17.60;1.00;;;;;;5121156;28;20506;-58
2022/09/08 04:25:04;;;;;;;5.47;4.13;;;17.50;1.00;;;;;;5122900;27;20459;-62
2022/09/08 04:27:33;;;;;;;4.10;3.67;;;17.40;1.00;;;;;;5122797;27;20434;-61
2022/09/08 04:30:03;;;;;;;4.83;4.43;;;17.30;1.00;;;;;;5121441;28;20459;-63
2022/09/08 04:32:35;;;;;;;4.67;3.80;;;17.20;1.00;;;;;;5121157;28;20460;-63
2022/09/08 04:35:03;;;;;;;7.30;3.93;;;17.20;1.00;;;;;;5124101;27;20465;-63
2022/09/08 04:37:32;;;;;;;5.23;3.90;;;17.10;1.00;;;;;;5142138;27;20458;-62
2022/09/08 04:39:59;;;;;;;5.30;4.00;;;17.00;71.30;;;;;;5141717;27;20481;-62
2022/09/08 04:42:29;;;;;;;7.70;4.23;;;16.90;99.90;;;;;;5141991;27;20506;-63
2022/09/08 04:44:56;;;;;;;4.40;3.87;;;16.80;99.90;;;;;;5140869;27;20444;-60
2022/09/08 04:47:23;;;;;;;5.70;4.10;;;16.90;99.90;;;;;;5122119;27;20460;-60
2022/09/08 04:49:52;;;;;;;5.50;3.93;;;16.80;1.00;;;;;;5121077;28;20855;-60
2022/09/08 04:52:24;;;;;;;5.07;4.10;;;16.90;1.00;;;;;;5128057;27;20461;-61
2022/09/08 04:54:51;;;;;;;5.50;4.13;;;16.80;1.00;;;;;;5132812;27;20891;-61
2022/09/08 04:57:20;;;;;;;4.40;4.00;;;16.80;99.90;;;;;;5140469;27;20462;-60
2022/09/08 04:59:47;;;;;;;4.43;3.80;;;16.70;99.90;;;;;;5139399;27;20466;-60
2022/09/08 05:02:14;;;;;;;4.37;3.97;;;16.80;1.00;;;;;;5141415;27;20504;-60
2022/09/08 05:04:41;;;;;;;4.40;4.00;;;16.80;1.00;;;;;;5136631;27;20422;-60
2022/09/08 05:07:14;;;;;;;4.60;4.03;;;16.70;99.90;;;;;;5129239;27;20874;-60
2022/09/08 05:09:46;;;;;;;5.60;3.80;;;16.70;1.00;;;;;;5128955;27;20458;-59
2022/09/08 05:12:15;;;;;;;4.93;4.20;;;16.70;99.90;;;;;;5137746;27;20520;-59
2022/09/08 05:14:45;;;;;;;4.43;4.03;;;16.70;99.90;;;;;;5128015;27;20445;-59
2022/09/08 05:17:12;;;;;;;4.53;4.13;;;16.70;99.90;;;;;;5130520;27;20474;-56
2022/09/08 05:19:40;;;;;;;4.90;4.10;;;16.80;1.00;;;;;;5130012;27;20440;-56
2022/09/08 05:22:07;;;;;;;7.00;4.20;;;16.80;99.90;;;;;;5130025;27;20463;-58
2022/09/08 05:24:34;;;;;;;6.93;5.00;;;16.80;99.90;;;;;;5122030;27;20446;-59
2022/09/08 05:27:03;;;;;;;6.40;4.67;;;16.80;99.90;;;;;;5129090;27;20557;-57
2022/09/08 05:29:30;;;;;;;5.90;5.40;;;16.90;99.90;;;;;;5127130;27;21397;-56
2022/09/08 05:31:57;;;;;;;5.83;4.63;;;16.80;37.20;;;;;;5137039;27;20469;-57
2022/09/08 05:34:27;;;;;;;6.53;5.10;;;16.80;99.90;;;;;;5131573;27;20490;-56
2022/09/08 05:36:56;;;;;;;7.73;4.83;;;16.80;99.90;;;;;;5123886;27;20443;-56
2022/09/08 05:39:24;;;;;;;5.90;4.70;;;16.80;99.90;;;;;;5128608;27;20469;-56
2022/09/08 05:41:52;;;;;;;6.30;5.30;;;16.80;99.90;;;;;;5119858;27;20495;-58
2022/09/08 05:44:25;;;;;;;7.63;5.53;;;16.80;99.90;;;;;;5139140;27;20525;-52
2022/09/08 05:46:52;;;;;;;6.00;5.30;;;16.70;99.90;;;;;;5140720;27;20511;-56
2022/09/08 05:49:19;;;;;;;9.73;5.50;;;16.80;99.90;;;;;;5127066;27;20455;-57
2022/09/08 05:51:46;;;;;;;8.47;5.30;;;16.70;99.90;;;;;;5119597;27;20441;-54
2022/09/08 05:54:15;;;;;;;6.20;5.60;;;16.80;99.90;;;;;;5119881;28;20456;-53
2022/09/08 05:56:42;;;;;;;7.57;5.23;;;16.80;99.90;;;;;;5119571;28;20434;-55
2022/09/08 05:59:12;;;;;;;7.47;5.00;;;16.80;99.90;;;;;;5120465;27;20445;-54
2022/09/08 06:01:41;;;;;;;5.77;5.27;;;16.70;99.90;;;;;;5119845;28;20516;-55
2022/09/08 06:04:09;;;;;;;7.80;5.97;;;16.80;99.90;;;;;;5118682;27;20486;-52
2022/09/08 06:06:37;;;;;;;6.60;5.50;;;16.90;99.90;;;;;;5118576;28;20441;-54
2022/09/08 06:09:08;;;;;;;6.70;6.00;;;16.90;99.90;;;;;;5125524;27;20749;-58
2022/09/08 06:11:36;;;;;;;8.07;6.63;;;17.00;99.90;;;;;;5139524;27;20748;-56
2022/09/08 06:14:05;;;;;;;6.03;5.43;;;17.00;99.90;;;;;;5130858;27;20451;-56
2022/09/08 06:16:40;;;;;;;5.80;5.20;;;17.00;99.90;;;;;;5138766;27;20563;-52
2022/09/08 06:19:11;;;;;;;8.00;5.33;;;17.00;99.90;;;;;;5139032;27;20465;-56
2022/09/08 06:21:38;;;;;;;6.33;5.07;;;17.00;99.90;;;;;;5125657;27;20512;-51
2022/09/08 06:24:06;;;;;;;6.90;5.80;;;17.00;99.90;;;;;;5128840;27;20487;-57
2022/09/08 06:26:54;;;;;;;8.10;4.90;;;17.00;99.90;;;;;;5126517;27;20864;-58
2022/09/08 06:29:37;;;;;;;7.80;6.17;;;17.10;99.90;;;;;;5128194;27;20489;-51
2022/09/08 06:32:15;;;;;;;6.13;5.50;;;17.10;99.90;;;;;;5127472;27;20426;-55
2022/09/08 06:34:48;;;;;;;5.90;5.40;;;17.10;99.90;;;;;;5128521;27;20443;-53
2022/09/08 06:37:35;;;;;;;6.13;5.20;;;17.00;99.90;;;;;;5127039;27;20455;-53
2022/09/08 06:40:10;;;;;;;8.23;5.97;;;17.10;99.90;;;;;;5125221;27;20451;-52
2022/09/08 06:42:45;;;;;;;5.80;5.20;;;17.20;99.90;;;;;;5127826;27;20507;-54
2022/09/08 06:45:24;;;;;;;7.00;5.90;;;17.20;99.90;;;;;;5128145;27;20486;-55
2022/09/08 06:48:13;;;;;;;5.60;5.10;;;17.10;99.90;;;;;;5126826;27;20422;-53
2022/09/08 06:50:52;;;;;;;9.67;5.90;;;17.10;99.90;;;;;;5126543;27;20463;-57
2022/09/08 06:53:25;;;;;;;6.90;5.60;;;17.20;99.90;;;;;;5125671;27;20816;-55
2022/09/08 06:55:59;;;;;;;6.40;5.80;;;17.10;99.90;;;;;;5126079;27;20451;-53
2022/09/08 06:58:31;;;;;;;6.53;5.93;;;17.10;99.90;;;;;;5126880;27;20874;-50
2022/09/08 07:01:03;;;;;;;7.60;5.40;;;17.00;99.90;;;;;;5125243;27;20463;-49
2022/09/08 07:03:53;;;;;;;5.93;5.37;;;17.00;99.90;;;;;;5125199;27;20475;-53
2022/09/08 07:06:28;;;;;;;6.73;5.83;;;17.00;99.90;;;;;;5127258;27;20456;-55
2022/09/08 07:09:07;;;;;;;7.70;5.60;;;17.00;99.90;;;;;;5126004;27;20471;-55
2022/09/08 07:11:57;;;;;;;8.53;5.70;;;17.00;99.90;;;;;;5126618;27;20888;-60
2022/09/08 07:14:50;;;;;;;6.33;5.07;;;17.00;99.90;;;;;;5127098;27;20451;-59
2022/09/08 07:17:28;;;;;;;4.73;4.30;;;17.00;99.90;;;;;;5125861;27;20484;-50
2022/09/08 07:19:58;;;;;;;4.13;3.73;;;17.00;99.90;;;;;;5125300;27;20456;-55
2022/09/08 07:22:37;;;;;;;4.27;3.87;;;17.00;99.90;;;;;;5125210;27;20444;-54
2022/09/08 07:25:17;;;;;;;5.20;4.70;;;17.00;99.90;;;;;;5126336;27;20454;-49
2022/09/08 07:27:48;;;;;;;5.83;4.80;;;17.00;99.90;;;;;;5123834;27;20816;-49
2022/09/08 07:30:19;;;;;;;5.23;4.03;;;17.10;99.90;;;;;;5125602;27;20425;-51
2022/09/08 07:32:51;;;;;;;4.77;4.27;;;17.10;99.90;;;;;;5126973;27;20759;-50
2022/09/08 07:35:26;;;;;;;4.00;3.60;;;17.00;99.90;;;;;;5125346;27;20524;-51
2022/09/08 07:37:57;;;;;;;3.83;3.43;;;17.10;99.90;;;;;;5125466;27;20425;-49
2022/09/08 07:40:38;;;;;;;4.60;3.90;;;17.10;99.90;;;;;;5126913;27;20697;-54
2022/09/08 07:43:10;;;;;;;4.93;3.57;;;17.20;99.90;;;;;;5125185;27;20471;-51
2022/09/08 07:45:45;;;;;;;3.93;3.63;;;17.20;99.90;;;;;;5126618;27;20452;-50
2022/09/08 07:48:25;;;;;;;4.13;3.73;;;17.30;99.90;;;;;;5127828;27;20433;-54
2022/09/08 07:51:01;;;;;;;3.53;3.23;;;17.20;99.90;;;;;;5127079;27;20425;-53
2022/09/08 07:53:46;;;;;;;3.90;3.57;;;17.20;99.90;;;;;;5127073;27;20467;-50
2022/09/08 07:56:21;;;;;;;3.83;3.53;;;17.20;99.90;;;;;;5126712;28;20449;-52
2022/09/08 07:59:05;;;;;;;5.40;4.50;;;17.00;99.90;;;;;;5125771;28;20886;-51
2022/09/08 08:01:39;;;;;;;5.20;4.70;;;17.00;99.90;;;;;;5127895;28;20758;-54
2022/09/08 08:04:25;;;;;;;4.33;3.87;;;16.90;99.90;;;;;;5127854;28;20919;-56
2022/09/08 08:06:55;;;;;;;4.70;4.30;;;16.80;99.90;;;;;;5127203;28;20486;-53
2022/09/08 08:09:35;;;;;;;4.33;3.20;;;16.60;99.90;;;;;;5125185;28;20466;-55
2022/09/08 08:12:10;;;;;;;7.00;3.30;;;16.60;99.90;;;;;;5125822;28;20451;-57
2022/09/08 08:14:47;;;;;;;4.30;3.00;;;16.50;99.90;;;;;;5124937;28;20484;-56
2022/09/08 08:17:33;;;;;;;5.33;3.50;;;16.40;99.90;;;;;;5127152;27;20802;-55
2022/09/08 08:20:21;;;;;;;4.60;4.20;;;16.60;99.90;;;;;;5126584;28;20451;-56
2022/09/08 08:23:25;;;;;;;6.20;4.20;;;16.50;99.90;;;;;;5125038;28;20854;-55
2022/09/08 08:26:02;;;;;;;6.90;4.03;;;16.50;99.90;;;;;;5089432;27;20424;-55
2022/09/08 08:28:37;;;;;;;7.73;4.10;;;16.40;99.90;;;;;;5127192;28;20458;-53
2022/09/08 08:31:16;;;;;;;5.00;3.93;;;16.50;99.90;;;;;;5126899;28;20426;-55
2022/09/08 08:33:47;;;;;;;7.07;4.63;;;16.50;99.90;;;;;;5126515;28;20500;-57
2022/09/08 08:36:17;;;;;;;6.67;5.13;;;16.50;99.90;;;;;;5125331;28;20422;-57
2022/09/08 08:38:48;;;;;;;7.13;4.60;;;16.60;99.90;;;;;;5125983;28;20449;-58
2022/09/08 08:41:26;;;;;;;7.50;5.20;;;16.70;99.90;;;;;;5128147;28;20557;-53
2022/09/08 08:44:05;;;;;;;5.87;5.07;;;16.80;99.90;;;;;;5127035;28;20474;-55
2022/09/08 08:47:09;;;;;;;6.30;5.70;;;16.70;99.90;;;;;;5126732;28;20431;-59
2022/09/08 08:50:00;;;;;;;5.80;4.70;;;16.80;99.90;;;;;;5125355;28;20434;-58
2022/09/08 08:52:47;;;;;;;5.33;4.20;;;16.90;99.90;;;;;;5126726;28;20435;-54
2022/09/08 08:55:38;;;;;;;4.97;4.47;;;16.70;1.00;;;;;;5125385;28;20556;-56
2022/09/08 08:58:31;;;;;;;5.13;3.70;;;16.60;99.90;;;;;;5126777;28;20901;-55
2022/09/08 09:01:09;;;;;;;3.57;2.73;;;16.70;1.00;;;;;;5125315;28;20812;-56
2022/09/08 09:03:55;;;;;;;5.33;2.97;;;16.70;29.80;;;;;;5127787;27;20538;-58
2022/09/08 09:06:39;;;;;;;5.57;3.30;;;16.80;99.90;;;;;;5129492;27;20888;-59
2022/09/08 09:09:46;;;;;;;3.07;2.77;;;17.00;1.00;;;;;;5127871;27;20501;-59
2022/09/08 09:12:38;;;;;;;3.43;2.67;;;17.10;1.00;;;;;;5129998;27;20452;-59
2022/09/08 09:16:00;;;;;;;3.80;2.83;;;17.00;1.00;;;;;;5119521;27;20483;-58
2022/09/08 09:19:18;;;;;;;3.57;2.70;;;17.10;99.90;;;;;;5045531;28;20804;-59
2022/09/08 09:21:53;;;;;;;3.07;2.70;;;17.40;1.00;;;;;;5100060;27;20433;-60
2022/09/08 09:24:38;;;;;;;3.90;3.60;;;17.60;1.00;;;;;;5128280;27;20457;-61
2022/09/08 09:27:31;;;;;;;6.30;3.43;;;17.60;99.90;;;;;;5128603;27;20430;-60
2022/09/08 09:30:13;;;;;;;6.30;4.50;;;17.60;99.90;;;;;;5128498;27;20753;-60
2022/09/08 09:33:07;;;;;;;5.80;4.00;;;17.30;99.90;;;;;;5128118;27;20451;-58
2022/09/08 09:36:05;;;;;;;5.63;5.03;;;17.10;99.90;;;;;;5130038;27;20459;-60
2022/09/08 09:39:17;;;;;;;7.33;5.30;;;16.90;99.90;;;;;;5129802;27;20426;-60
2022/09/08 09:42:08;;;;;;;5.53;5.00;;;17.00;99.90;;;;;;5092683;27;20469;-60
